sensor_id;sensor_type;location;lat;lon;timestamp;P1;durP1;ratioP1;P2;durP2;ratioP2
43184;SDS011;28803;52.308;19.096;2022-10-22T00:00:33;26.33;;;12.18;;
43184;SDS011;28803;52.308;19.096;2022-10-22T00:03:20;21.00;;;10.80;;
43184;SDS011;28803;52.308;19.096;2022-10-22T00:05:47;21.58;;;11.63;;
43184;SDS011;28803;52.308;19.096;2022-10-22T00:08:14;21.73;;;12.00;;
43184;SDS011;28803;52.308;19.096;2022-10-22T00:10:41;24.85;;;13.63;;
43184;SDS011;28803;52.308;19.096;2022-10-22T00:13:09;21.67;;;12.77;;
43184;SDS011;28803;52.308;19.096;2022-10-22T00:15:37;21.08;;;12.65;;
43184;SDS011;28803;52.308;19.096;2022-10-22T00:18:04;21.23;;;11.80;;
43184;SDS011;28803;52.308;19.096;2022-10-22T00:20:31;20.17;;;12.02;;
43184;SDS011;28803;52.308;19.096;2022-10-22T00:22:58;23.08;;;12.13;;
43184;SDS011;28803;52.308;19.096;2022-10-22T00:25:26;21.15;;;11.55;;
43184;SDS011;28803;52.308;19.096;2022-10-22T00:27:52;19.27;;;11.82;;
43184;SDS011;28803;52.308;19.096;2022-10-22T00:30:20;21.00;;;12.27;;
43184;SDS011;28803;52.308;19.096;2022-10-22T00:32:47;20.75;;;11.90;;
43184;SDS011;28803;52.308;19.096;2022-10-22T00:35:14;23.38;;;13.65;;
43184;SDS011;28803;52.308;19.096;2022-10-22T00:37:41;20.45;;;12.25;;
43184;SDS011;28803;52.308;19.096;2022-10-22T00:40:08;18.48;;;11.43;;
43184;SDS011;28803;52.308;19.096;2022-10-22T00:42:36;20.60;;;11.00;;
43184;SDS011;28803;52.308;19.096;2022-10-22T00:47:45;18.30;;;11.68;;
43184;SDS011;28803;52.308;19.096;2022-10-22T00:53:03;20.65;;;11.40;;
43184;SDS011;28803;52.308;19.096;2022-10-22T00:58:03;18.85;;;10.52;;
43184;SDS011;28803;52.308;19.096;2022-10-22T01:00:30;17.35;;;10.27;;
43184;SDS011;28803;52.308;19.096;2022-10-22T01:02:57;19.95;;;11.00;;
43184;SDS011;28803;52.308;19.096;2022-10-22T01:05:28;19.30;;;11.10;;
43184;SDS011;28803;52.308;19.096;2022-10-22T01:07:58;18.50;;;10.55;;
43184;SDS011;28803;52.308;19.096;2022-10-22T01:21:26;20.02;;;10.38;;
43184;SDS011;28803;52.308;19.096;2022-10-22T01:24:16;15.60;;;9.60;;
43184;SDS011;28803;52.308;19.096;2022-10-22T01:26:58;15.73;;;9.25;;
43184;SDS011;28803;52.308;19.096;2022-10-22T01:32:14;16.75;;;10.52;;
43184;SDS011;28803;52.308;19.096;2022-10-22T01:34:51;18.85;;;11.23;;
43184;SDS011;28803;52.308;19.096;2022-10-22T01:37:23;21.38;;;11.40;;
43184;SDS011;28803;52.308;19.096;2022-10-22T01:39:55;23.80;;;12.10;;
43184;SDS011;28803;52.308;19.096;2022-10-22T01:42:25;23.20;;;11.82;;
43184;SDS011;28803;52.308;19.096;2022-10-22T01:44:52;22.13;;;12.15;;
43184;SDS011;28803;52.308;19.096;2022-10-22T01:53:17;23.33;;;13.32;;
43184;SDS011;28803;52.308;19.096;2022-10-22T01:55:51;21.98;;;12.60;;
43184;SDS011;28803;52.308;19.096;2022-10-22T02:01:48;23.17;;;12.55;;
43184;SDS011;28803;52.308;19.096;2022-10-22T02:04:25;25.55;;;13.82;;
43184;SDS011;28803;52.308;19.096;2022-10-22T02:07:14;21.95;;;12.38;;
43184;SDS011;28803;52.308;19.096;2022-10-22T02:09:46;24.02;;;13.65;;
43184;SDS011;28803;52.308;19.096;2022-10-22T02:12:16;25.17;;;14.20;;
43184;SDS011;28803;52.308;19.096;2022-10-22T02:14:45;22.30;;;12.68;;
43184;SDS011;28803;52.308;19.096;2022-10-22T02:17:15;23.52;;;14.25;;
43184;SDS011;28803;52.308;19.096;2022-10-22T02:19:52;23.98;;;12.93;;
43184;SDS011;28803;52.308;19.096;2022-10-22T02:22:20;25.13;;;13.57;;
43184;SDS011;28803;52.308;19.096;2022-10-22T02:24:47;23.95;;;14.35;;
43184;SDS011;28803;52.308;19.096;2022-10-22T02:27:28;25.52;;;14.82;;
43184;SDS011;28803;52.308;19.096;2022-10-22T02:33:12;23.70;;;13.77;;
43184;SDS011;28803;52.308;19.096;2022-10-22T02:35:24;24.52;;;12.93;;
43184;SDS011;28803;52.308;19.096;2022-10-22T02:37:54;26.60;;;13.23;;
43184;SDS011;28803;52.308;19.096;2022-10-22T02:40:22;28.50;;;14.95;;
43184;SDS011;28803;52.308;19.096;2022-10-22T02:42:50;25.77;;;14.15;;
43184;SDS011;28803;52.308;19.096;2022-10-22T02:45:18;23.75;;;13.95;;
43184;SDS011;28803;52.308;19.096;2022-10-22T02:47:46;23.45;;;13.30;;
43184;SDS011;28803;52.308;19.096;2022-10-22T02:50:13;21.88;;;12.70;;
43184;SDS011;28803;52.308;19.096;2022-10-22T02:52:41;26.98;;;13.40;;
43184;SDS011;28803;52.308;19.096;2022-10-22T02:55:08;25.85;;;14.98;;
43184;SDS011;28803;52.308;19.096;2022-10-22T02:57:35;27.00;;;13.90;;
43184;SDS011;28803;52.308;19.096;2022-10-22T03:00:04;25.70;;;13.80;;
43184;SDS011;28803;52.308;19.096;2022-10-22T03:02:32;24.08;;;13.48;;
43184;SDS011;28803;52.308;19.096;2022-10-22T03:04:59;24.98;;;13.82;;
43184;SDS011;28803;52.308;19.096;2022-10-22T03:07:26;26.23;;;14.43;;
43184;SDS011;28803;52.308;19.096;2022-10-22T03:09:53;23.40;;;13.02;;
43184;SDS011;28803;52.308;19.096;2022-10-22T03:12:20;26.92;;;13.52;;
43184;SDS011;28803;52.308;19.096;2022-10-22T03:14:47;24.17;;;13.40;;
43184;SDS011;28803;52.308;19.096;2022-10-22T03:17:14;24.83;;;13.88;;
43184;SDS011;28803;52.308;19.096;2022-10-22T03:19:42;22.88;;;12.50;;
43184;SDS011;28803;52.308;19.096;2022-10-22T03:22:20;25.33;;;13.68;;
43184;SDS011;28803;52.308;19.096;2022-10-22T03:24:51;23.30;;;13.27;;
43184;SDS011;28803;52.308;19.096;2022-10-22T03:27:23;24.77;;;13.48;;
43184;SDS011;28803;52.308;19.096;2022-10-22T03:29:51;26.05;;;13.55;;
43184;SDS011;28803;52.308;19.096;2022-10-22T03:32:18;22.73;;;13.45;;
43184;SDS011;28803;52.308;19.096;2022-10-22T03:34:45;23.02;;;13.27;;
43184;SDS011;28803;52.308;19.096;2022-10-22T03:37:13;28.73;;;12.50;;
43184;SDS011;28803;52.308;19.096;2022-10-22T03:39:40;21.77;;;11.77;;
43184;SDS011;28803;52.308;19.096;2022-10-22T03:42:07;25.30;;;12.65;;
43184;SDS011;28803;52.308;19.096;2022-10-22T03:44:35;23.10;;;13.38;;
43184;SDS011;28803;52.308;19.096;2022-10-22T03:47:03;26.10;;;13.50;;
43184;SDS011;28803;52.308;19.096;2022-10-22T03:49:31;22.95;;;12.68;;
43184;SDS011;28803;52.308;19.096;2022-10-22T03:52:03;24.40;;;14.10;;
43184;SDS011;28803;52.308;19.096;2022-10-22T03:54:32;22.00;;;13.88;;
43184;SDS011;28803;52.308;19.096;2022-10-22T03:56:59;20.13;;;12.10;;
43184;SDS011;28803;52.308;19.096;2022-10-22T03:59:26;26.17;;;13.52;;
43184;SDS011;28803;52.308;19.096;2022-10-22T04:01:53;22.45;;;14.68;;
43184;SDS011;28803;52.308;19.096;2022-10-22T04:04:21;25.15;;;14.02;;
43184;SDS011;28803;52.308;19.096;2022-10-22T04:06:48;22.88;;;12.95;;
43184;SDS011;28803;52.308;19.096;2022-10-22T04:09:15;21.33;;;12.95;;
43184;SDS011;28803;52.308;19.096;2022-10-22T04:11:42;23.35;;;12.20;;
43184;SDS011;28803;52.308;19.096;2022-10-22T04:14:10;20.77;;;12.98;;
43184;SDS011;28803;52.308;19.096;2022-10-22T04:16:40;20.92;;;12.85;;
43184;SDS011;28803;52.308;19.096;2022-10-22T04:19:07;22.70;;;11.93;;
43184;SDS011;28803;52.308;19.096;2022-10-22T04:21:34;20.77;;;12.18;;
43184;SDS011;28803;52.308;19.096;2022-10-22T04:24:02;24.33;;;12.77;;
43184;SDS011;28803;52.308;19.096;2022-10-22T04:26:29;23.45;;;13.15;;
43184;SDS011;28803;52.308;19.096;2022-10-22T04:28:56;24.77;;;12.57;;
43184;SDS011;28803;52.308;19.096;2022-10-22T04:31:24;22.85;;;12.43;;
43184;SDS011;28803;52.308;19.096;2022-10-22T04:33:55;26.35;;;13.63;;
43184;SDS011;28803;52.308;19.096;2022-10-22T04:36:24;23.10;;;13.48;;
43184;SDS011;28803;52.308;19.096;2022-10-22T04:38:55;23.75;;;13.70;;
43184;SDS011;28803;52.308;19.096;2022-10-22T04:41:26;22.25;;;12.82;;
43184;SDS011;28803;52.308;19.096;2022-10-22T04:43:55;24.73;;;13.18;;
43184;SDS011;28803;52.308;19.096;2022-10-22T04:46:23;24.88;;;13.38;;
43184;SDS011;28803;52.308;19.096;2022-10-22T04:48:52;26.77;;;14.82;;
43184;SDS011;28803;52.308;19.096;2022-10-22T04:51:22;26.15;;;13.57;;
43184;SDS011;28803;52.308;19.096;2022-10-22T04:53:51;28.17;;;14.02;;
43184;SDS011;28803;52.308;19.096;2022-10-22T04:56:19;24.25;;;14.73;;
43184;SDS011;28803;52.308;19.096;2022-10-22T04:58:49;21.92;;;14.02;;
43184;SDS011;28803;52.308;19.096;2022-10-22T05:01:22;29.08;;;14.73;;
43184;SDS011;28803;52.308;19.096;2022-10-22T05:03:55;27.77;;;14.65;;
43184;SDS011;28803;52.308;19.096;2022-10-22T05:06:24;25.70;;;14.45;;
43184;SDS011;28803;52.308;19.096;2022-10-22T05:08:52;25.00;;;15.18;;
43184;SDS011;28803;52.308;19.096;2022-10-22T05:11:23;25.15;;;14.48;;
43184;SDS011;28803;52.308;19.096;2022-10-22T05:13:57;30.30;;;15.52;;
43184;SDS011;28803;52.308;19.096;2022-10-22T05:16:25;26.88;;;14.52;;
43184;SDS011;28803;52.308;19.096;2022-10-22T05:18:54;23.85;;;13.57;;
43184;SDS011;28803;52.308;19.096;2022-10-22T05:21:21;23.60;;;12.52;;
43184;SDS011;28803;52.308;19.096;2022-10-22T05:23:48;24.85;;;14.95;;
43184;SDS011;28803;52.308;19.096;2022-10-22T05:26:17;22.92;;;13.25;;
43184;SDS011;28803;52.308;19.096;2022-10-22T05:28:45;21.95;;;13.23;;
43184;SDS011;28803;52.308;19.096;2022-10-22T05:31:13;22.52;;;12.90;;
43184;SDS011;28803;52.308;19.096;2022-10-22T05:33:42;24.38;;;12.52;;
43184;SDS011;28803;52.308;19.096;2022-10-22T05:36:15;22.33;;;12.95;;
43184;SDS011;28803;52.308;19.096;2022-10-22T05:38:44;23.33;;;12.48;;
43184;SDS011;28803;52.308;19.096;2022-10-22T05:41:13;24.33;;;13.55;;
43184;SDS011;28803;52.308;19.096;2022-10-22T05:43:42;27.95;;;14.25;;
43184;SDS011;28803;52.308;19.096;2022-10-22T05:46:10;21.50;;;12.77;;
43184;SDS011;28803;52.308;19.096;2022-10-22T05:48:49;28.92;;;13.20;;
43184;SDS011;28803;52.308;19.096;2022-10-22T05:51:17;21.88;;;13.07;;
43184;SDS011;28803;52.308;19.096;2022-10-22T05:53:44;22.70;;;12.68;;
43184;SDS011;28803;52.308;19.096;2022-10-22T05:56:13;23.17;;;12.63;;
43184;SDS011;28803;52.308;19.096;2022-10-22T05:58:42;23.77;;;12.52;;
43184;SDS011;28803;52.308;19.096;2022-10-22T06:01:11;26.50;;;12.35;;
43184;SDS011;28803;52.308;19.096;2022-10-22T06:03:39;19.35;;;11.77;;
43184;SDS011;28803;52.308;19.096;2022-10-22T06:06:19;23.05;;;12.60;;
43184;SDS011;28803;52.308;19.096;2022-10-22T06:08:51;26.23;;;13.50;;
43184;SDS011;28803;52.308;19.096;2022-10-22T06:11:21;24.45;;;12.88;;
43184;SDS011;28803;52.308;19.096;2022-10-22T06:13:49;20.50;;;11.70;;
43184;SDS011;28803;52.308;19.096;2022-10-22T06:16:16;22.25;;;12.45;;
43184;SDS011;28803;52.308;19.096;2022-10-22T06:18:44;25.35;;;13.13;;
43184;SDS011;28803;52.308;19.096;2022-10-22T06:21:12;19.70;;;12.02;;
43184;SDS011;28803;52.308;19.096;2022-10-22T06:23:41;25.40;;;12.90;;
43184;SDS011;28803;52.308;19.096;2022-10-22T06:26:08;23.02;;;12.75;;
43184;SDS011;28803;52.308;19.096;2022-10-22T06:28:37;22.10;;;12.00;;
43184;SDS011;28803;52.308;19.096;2022-10-22T06:31:04;18.90;;;11.70;;
43184;SDS011;28803;52.308;19.096;2022-10-22T06:33:32;19.63;;;12.05;;
43184;SDS011;28803;52.308;19.096;2022-10-22T06:36:03;20.60;;;12.73;;
43184;SDS011;28803;52.308;19.096;2022-10-22T06:38:34;21.45;;;12.57;;
43184;SDS011;28803;52.308;19.096;2022-10-22T06:41:09;23.40;;;13.70;;
43184;SDS011;28803;52.308;19.096;2022-10-22T06:43:39;22.15;;;12.55;;
43184;SDS011;28803;52.308;19.096;2022-10-22T06:46:07;23.63;;;13.75;;
43184;SDS011;28803;52.308;19.096;2022-10-22T06:48:41;29.35;;;14.07;;
43184;SDS011;28803;52.308;19.096;2022-10-22T06:51:09;22.30;;;12.55;;
43184;SDS011;28803;52.308;19.096;2022-10-22T06:53:39;26.30;;;12.48;;
43184;SDS011;28803;52.308;19.096;2022-10-22T06:56:10;24.02;;;13.23;;
43184;SDS011;28803;52.308;19.096;2022-10-22T06:58:39;25.75;;;12.93;;
43184;SDS011;28803;52.308;19.096;2022-10-22T07:01:08;26.77;;;13.55;;
43184;SDS011;28803;52.308;19.096;2022-10-22T07:03:37;21.45;;;13.05;;
43184;SDS011;28803;52.308;19.096;2022-10-22T07:06:06;28.63;;;15.55;;
43184;SDS011;28803;52.308;19.096;2022-10-22T07:08:36;28.25;;;13.30;;
43184;SDS011;28803;52.308;19.096;2022-10-22T07:11:05;27.58;;;13.35;;
43184;SDS011;28803;52.308;19.096;2022-10-22T07:13:34;27.58;;;12.68;;
43184;SDS011;28803;52.308;19.096;2022-10-22T07:16:02;30.65;;;13.93;;
43184;SDS011;28803;52.308;19.096;2022-10-22T07:18:30;19.95;;;12.52;;
43184;SDS011;28803;52.308;19.096;2022-10-22T07:20:58;28.52;;;14.70;;
43184;SDS011;28803;52.308;19.096;2022-10-22T07:23:26;26.25;;;13.98;;
43184;SDS011;28803;52.308;19.096;2022-10-22T07:25:54;27.63;;;13.80;;
43184;SDS011;28803;52.308;19.096;2022-10-22T07:28:22;27.40;;;14.50;;
43184;SDS011;28803;52.308;19.096;2022-10-22T07:30:49;30.02;;;13.85;;
43184;SDS011;28803;52.308;19.096;2022-10-22T07:33:17;28.45;;;14.02;;
43184;SDS011;28803;52.308;19.096;2022-10-22T07:35:43;33.83;;;15.82;;
43184;SDS011;28803;52.308;19.096;2022-10-22T07:38:11;27.42;;;15.43;;
43184;SDS011;28803;52.308;19.096;2022-10-22T07:40:38;33.92;;;15.52;;
43184;SDS011;28803;52.308;19.096;2022-10-22T07:43:05;32.92;;;16.95;;
43184;SDS011;28803;52.308;19.096;2022-10-22T07:45:32;34.42;;;14.43;;
43184;SDS011;28803;52.308;19.096;2022-10-22T07:47:59;32.97;;;15.68;;
43184;SDS011;28803;52.308;19.096;2022-10-22T07:50:27;32.05;;;16.73;;
43184;SDS011;28803;52.308;19.096;2022-10-22T07:52:54;37.67;;;16.02;;
43184;SDS011;28803;52.308;19.096;2022-10-22T07:55:24;35.28;;;16.77;;
43184;SDS011;28803;52.308;19.096;2022-10-22T07:57:51;38.50;;;16.88;;
43184;SDS011;28803;52.308;19.096;2022-10-22T08:00:18;45.22;;;16.65;;
43184;SDS011;28803;52.308;19.096;2022-10-22T08:02:51;34.25;;;15.82;;
43184;SDS011;28803;52.308;19.096;2022-10-22T08:05:18;31.90;;;16.58;;
43184;SDS011;28803;52.308;19.096;2022-10-22T08:07:45;45.05;;;18.73;;
43184;SDS011;28803;52.308;19.096;2022-10-22T08:10:12;34.40;;;16.63;;
43184;SDS011;28803;52.308;19.096;2022-10-22T08:12:39;33.83;;;15.38;;
43184;SDS011;28803;52.308;19.096;2022-10-22T08:15:07;32.03;;;16.50;;
43184;SDS011;28803;52.308;19.096;2022-10-22T08:17:34;34.20;;;15.50;;
43184;SDS011;28803;52.308;19.096;2022-10-22T08:20:02;39.80;;;16.48;;
43184;SDS011;28803;52.308;19.096;2022-10-22T08:22:30;37.00;;;16.42;;
43184;SDS011;28803;52.308;19.096;2022-10-22T08:24:57;35.97;;;15.32;;
43184;SDS011;28803;52.308;19.096;2022-10-22T08:27:26;33.70;;;16.85;;
43184;SDS011;28803;52.308;19.096;2022-10-22T08:29:53;35.60;;;15.65;;
43184;SDS011;28803;52.308;19.096;2022-10-22T08:32:20;32.78;;;16.63;;
43184;SDS011;28803;52.308;19.096;2022-10-22T08:34:47;41.20;;;17.80;;
43184;SDS011;28803;52.308;19.096;2022-10-22T08:37:15;29.13;;;15.20;;
43184;SDS011;28803;52.308;19.096;2022-10-22T08:39:43;33.03;;;17.00;;
43184;SDS011;28803;52.308;19.096;2022-10-22T08:45:11;34.10;;;15.85;;
43184;SDS011;28803;52.308;19.096;2022-10-22T08:50:50;36.47;;;17.27;;
43184;SDS011;28803;52.308;19.096;2022-10-22T08:53:21;31.90;;;17.08;;
43184;SDS011;28803;52.308;19.096;2022-10-22T08:56:08;30.33;;;16.05;;
43184;SDS011;28803;52.308;19.096;2022-10-22T09:01:16;36.67;;;15.82;;
43184;SDS011;28803;52.308;19.096;2022-10-22T09:06:28;45.08;;;18.05;;
43184;SDS011;28803;52.308;19.096;2022-10-22T09:08:58;40.40;;;15.77;;
43184;SDS011;28803;52.308;19.096;2022-10-22T09:11:37;33.25;;;17.60;;
43184;SDS011;28803;52.308;19.096;2022-10-22T09:14:08;38.28;;;18.73;;
43184;SDS011;28803;52.308;19.096;2022-10-22T09:24:58;38.25;;;18.20;;
43184;SDS011;28803;52.308;19.096;2022-10-22T09:27:39;40.00;;;20.02;;
43184;SDS011;28803;52.308;19.096;2022-10-22T09:30:10;47.85;;;19.15;;
43184;SDS011;28803;52.308;19.096;2022-10-22T09:32:50;47.25;;;21.02;;
43184;SDS011;28803;52.308;19.096;2022-10-22T09:35:26;44.95;;;18.75;;
43184;SDS011;28803;52.308;19.096;2022-10-22T09:37:54;47.00;;;19.55;;
43184;SDS011;28803;52.308;19.096;2022-10-22T09:40:22;47.90;;;20.23;;
43184;SDS011;28803;52.308;19.096;2022-10-22T09:42:49;44.53;;;20.70;;
43184;SDS011;28803;52.308;19.096;2022-10-22T09:45:20;43.60;;;20.42;;
43184;SDS011;28803;52.308;19.096;2022-10-22T09:48:02;47.20;;;21.35;;
43184;SDS011;28803;52.308;19.096;2022-10-22T09:53:20;54.13;;;21.30;;
43184;SDS011;28803;52.308;19.096;2022-10-22T09:55:54;44.03;;;20.48;;
43184;SDS011;28803;52.308;19.096;2022-10-22T09:58:23;45.30;;;20.20;;
43184;SDS011;28803;52.308;19.096;2022-10-22T10:00:54;39.85;;;19.23;;
43184;SDS011;28803;52.308;19.096;2022-10-22T10:03:24;43.25;;;19.58;;
43184;SDS011;28803;52.308;19.096;2022-10-22T10:05:54;44.75;;;19.40;;
43184;SDS011;28803;52.308;19.096;2022-10-22T10:08:30;37.95;;;17.77;;
43184;SDS011;28803;52.308;19.096;2022-10-22T10:10:58;36.97;;;18.85;;
43184;SDS011;28803;52.308;19.096;2022-10-22T10:16:29;36.83;;;17.30;;
43184;SDS011;28803;52.308;19.096;2022-10-22T10:21:51;38.50;;;18.00;;
43184;SDS011;28803;52.308;19.096;2022-10-22T10:30:24;37.47;;;18.23;;
43184;SDS011;28803;52.308;19.096;2022-10-22T10:35:42;33.25;;;18.25;;
43184;SDS011;28803;52.308;19.096;2022-10-22T10:41:07;38.85;;;18.98;;
43184;SDS011;28803;52.308;19.096;2022-10-22T10:44:15;36.42;;;17.63;;
43184;SDS011;28803;52.308;19.096;2022-10-22T10:49:33;39.53;;;18.20;;
43184;SDS011;28803;52.308;19.096;2022-10-22T10:52:05;36.40;;;18.52;;
43184;SDS011;28803;52.308;19.096;2022-10-22T11:05:38;37.40;;;18.27;;
43184;SDS011;28803;52.308;19.096;2022-10-22T11:11:44;39.72;;;18.42;;
43184;SDS011;28803;52.308;19.096;2022-10-22T11:14:23;39.30;;;19.02;;
43184;SDS011;28803;52.308;19.096;2022-10-22T11:17:05;34.95;;;18.55;;
43184;SDS011;28803;52.308;19.096;2022-10-22T11:19:47;32.55;;;18.27;;
43184;SDS011;28803;52.308;19.096;2022-10-22T11:22:30;39.95;;;17.60;;
43184;SDS011;28803;52.308;19.096;2022-10-22T11:25:29;32.77;;;16.80;;
43184;SDS011;28803;52.308;19.096;2022-10-22T11:28:47;39.00;;;16.63;;
43184;SDS011;28803;52.308;19.096;2022-10-22T11:31:04;36.22;;;17.15;;
43184;SDS011;28803;52.308;19.096;2022-10-22T11:33:41;32.22;;;17.08;;
43184;SDS011;28803;52.308;19.096;2022-10-22T11:36:38;33.17;;;16.13;;
43184;SDS011;28803;52.308;19.096;2022-10-22T11:39:06;32.92;;;16.70;;
43184;SDS011;28803;52.308;19.096;2022-10-22T11:41:52;28.90;;;15.82;;
43184;SDS011;28803;52.308;19.096;2022-10-22T11:44:21;35.35;;;17.95;;
43184;SDS011;28803;52.308;19.096;2022-10-22T11:46:55;30.02;;;15.50;;
43184;SDS011;28803;52.308;19.096;2022-10-22T11:52:04;34.33;;;16.35;;
43184;SDS011;28803;52.308;19.096;2022-10-22T11:55:02;36.38;;;16.98;;
43184;SDS011;28803;52.308;19.096;2022-10-22T11:57:49;37.35;;;16.70;;
43184;SDS011;28803;52.308;19.096;2022-10-22T12:00:34;34.88;;;16.73;;
43184;SDS011;28803;52.308;19.096;2022-10-22T12:03:17;43.05;;;18.75;;
43184;SDS011;28803;52.308;19.096;2022-10-22T12:08:41;39.60;;;18.30;;
43184;SDS011;28803;52.308;19.096;2022-10-22T12:14:16;38.55;;;17.73;;
43184;SDS011;28803;52.308;19.096;2022-10-22T12:20:06;47.10;;;19.85;;
43184;SDS011;28803;52.308;19.096;2022-10-22T12:22:38;44.35;;;20.60;;
43184;SDS011;28803;52.308;19.096;2022-10-22T12:25:21;36.08;;;20.50;;
43184;SDS011;28803;52.308;19.096;2022-10-22T12:27:54;42.38;;;19.20;;
43184;SDS011;28803;52.308;19.096;2022-10-22T12:30:28;38.05;;;17.67;;
43184;SDS011;28803;52.308;19.096;2022-10-22T12:33:00;41.92;;;18.75;;
43184;SDS011;28803;52.308;19.096;2022-10-22T12:35:31;37.15;;;17.73;;
43184;SDS011;28803;52.308;19.096;2022-10-22T12:38:02;34.60;;;17.92;;
43184;SDS011;28803;52.308;19.096;2022-10-22T12:40:38;37.08;;;17.30;;
43184;SDS011;28803;52.308;19.096;2022-10-22T12:43:17;37.45;;;18.20;;
43184;SDS011;28803;52.308;19.096;2022-10-22T12:45:49;43.38;;;18.15;;
43184;SDS011;28803;52.308;19.096;2022-10-22T12:48:27;42.72;;;18.25;;
43184;SDS011;28803;52.308;19.096;2022-10-22T12:50:59;44.30;;;19.38;;
43184;SDS011;28803;52.308;19.096;2022-10-22T12:53:30;40.10;;;19.95;;
43184;SDS011;28803;52.308;19.096;2022-10-22T12:56:04;44.88;;;19.73;;
43184;SDS011;28803;52.308;19.096;2022-10-22T12:58:37;42.03;;;19.42;;
43184;SDS011;28803;52.308;19.096;2022-10-22T13:01:11;42.03;;;18.65;;
43184;SDS011;28803;52.308;19.096;2022-10-22T13:03:48;39.55;;;18.40;;
43184;SDS011;28803;52.308;19.096;2022-10-22T13:08:44;41.92;;;19.25;;
43184;SDS011;28803;52.308;19.096;2022-10-22T13:11:36;38.38;;;18.48;;
43184;SDS011;28803;52.308;19.096;2022-10-22T13:17:14;98.47;;;47.88;;
43184;SDS011;28803;52.308;19.096;2022-10-22T13:25:42;67.80;;;38.20;;
43184;SDS011;28803;52.308;19.096;2022-10-22T13:28:01;70.88;;;42.15;;
43184;SDS011;28803;52.308;19.096;2022-10-22T13:30:33;58.00;;;26.63;;
43184;SDS011;28803;52.308;19.096;2022-10-22T13:35:34;37.97;;;19.35;;
43184;SDS011;28803;52.308;19.096;2022-10-22T13:38:17;40.63;;;20.63;;
43184;SDS011;28803;52.308;19.096;2022-10-22T13:40:45;44.45;;;21.83;;
43184;SDS011;28803;52.308;19.096;2022-10-22T13:43:13;36.13;;;19.83;;
43184;SDS011;28803;52.308;19.096;2022-10-22T13:45:40;41.78;;;23.10;;
43184;SDS011;28803;52.308;19.096;2022-10-22T13:48:16;52.00;;;28.65;;
43184;SDS011;28803;52.308;19.096;2022-10-22T13:50:48;47.72;;;25.92;;
43184;SDS011;28803;52.308;19.096;2022-10-22T13:53:17;42.33;;;22.67;;
43184;SDS011;28803;52.308;19.096;2022-10-22T13:55:47;39.85;;;19.30;;
43184;SDS011;28803;52.308;19.096;2022-10-22T13:58:17;57.15;;;31.67;;
43184;SDS011;28803;52.308;19.096;2022-10-22T14:00:48;88.35;;;43.85;;
43184;SDS011;28803;52.308;19.096;2022-10-22T14:03:19;73.50;;;43.20;;
43184;SDS011;28803;52.308;19.096;2022-10-22T14:05:48;56.90;;;29.52;;
43184;SDS011;28803;52.308;19.096;2022-10-22T14:08:17;74.22;;;51.85;;
43184;SDS011;28803;52.308;19.096;2022-10-22T14:10:46;58.08;;;37.33;;
43184;SDS011;28803;52.308;19.096;2022-10-22T14:13:14;46.83;;;31.15;;
43184;SDS011;28803;52.308;19.096;2022-10-22T14:15:43;36.83;;;20.92;;
43184;SDS011;28803;52.308;19.096;2022-10-22T14:18:14;43.53;;;25.70;;
43184;SDS011;28803;52.308;19.096;2022-10-22T14:20:53;56.58;;;31.55;;
43184;SDS011;28803;52.308;19.096;2022-10-22T14:23:24;94.63;;;42.47;;
43184;SDS011;28803;52.308;19.096;2022-10-22T14:25:56;211.57;;;80.82;;
43184;SDS011;28803;52.308;19.096;2022-10-22T14:28:25;111.97;;;53.30;;
43184;SDS011;28803;52.308;19.096;2022-10-22T14:30:52;68.13;;;33.10;;
43184;SDS011;28803;52.308;19.096;2022-10-22T14:33:25;58.55;;;30.95;;
43184;SDS011;28803;52.308;19.096;2022-10-22T14:35:58;64.00;;;32.72;;
43184;SDS011;28803;52.308;19.096;2022-10-22T14:38:25;57.13;;;27.20;;
43184;SDS011;28803;52.308;19.096;2022-10-22T14:40:53;67.18;;;29.73;;
43184;SDS011;28803;52.308;19.096;2022-10-22T14:43:21;165.80;;;61.35;;
43184;SDS011;28803;52.308;19.096;2022-10-22T14:45:51;122.60;;;49.28;;
43184;SDS011;28803;52.308;19.096;2022-10-22T14:48:18;163.70;;;62.92;;
43184;SDS011;28803;52.308;19.096;2022-10-22T14:50:48;110.50;;;45.17;;
43184;SDS011;28803;52.308;19.096;2022-10-22T14:53:15;122.15;;;49.55;;
43184;SDS011;28803;52.308;19.096;2022-10-22T14:55:43;125.90;;;49.25;;
43184;SDS011;28803;52.308;19.096;2022-10-22T14:58:13;153.13;;;63.38;;
43184;SDS011;28803;52.308;19.096;2022-10-22T15:00:41;167.82;;;69.55;;
43184;SDS011;28803;52.308;19.096;2022-10-22T15:03:09;65.45;;;28.85;;
43184;SDS011;28803;52.308;19.096;2022-10-22T15:05:40;66.10;;;34.50;;
43184;SDS011;28803;52.308;19.096;2022-10-22T15:08:12;84.07;;;41.45;;
43184;SDS011;28803;52.308;19.096;2022-10-22T15:10:40;86.70;;;49.40;;
43184;SDS011;28803;52.308;19.096;2022-10-22T15:13:07;91.75;;;54.55;;
43184;SDS011;28803;52.308;19.096;2022-10-22T15:15:35;55.85;;;30.35;;
43184;SDS011;28803;52.308;19.096;2022-10-22T15:18:05;70.32;;;44.10;;
43184;SDS011;28803;52.308;19.096;2022-10-22T15:20:32;64.30;;;40.35;;
43184;SDS011;28803;52.308;19.096;2022-10-22T15:22:59;59.92;;;38.50;;
43184;SDS011;28803;52.308;19.096;2022-10-22T15:25:29;71.28;;;54.28;;
43184;SDS011;28803;52.308;19.096;2022-10-22T15:27:56;47.38;;;27.83;;
43184;SDS011;28803;52.308;19.096;2022-10-22T15:30:34;49.85;;;32.05;;
43184;SDS011;28803;52.308;19.096;2022-10-22T15:33:02;48.28;;;29.75;;
43184;SDS011;28803;52.308;19.096;2022-10-22T15:35:29;54.28;;;32.58;;
43184;SDS011;28803;52.308;19.096;2022-10-22T15:37:56;44.88;;;24.90;;
43184;SDS011;28803;52.308;19.096;2022-10-22T15:40:23;56.88;;;34.78;;
43184;SDS011;28803;52.308;19.096;2022-10-22T15:42:50;46.53;;;27.42;;
43184;SDS011;28803;52.308;19.096;2022-10-22T15:45:18;35.67;;;22.55;;
43184;SDS011;28803;52.308;19.096;2022-10-22T15:47:46;47.20;;;27.13;;
43184;SDS011;28803;52.308;19.096;2022-10-22T15:50:15;41.10;;;22.90;;
43184;SDS011;28803;52.308;19.096;2022-10-22T15:52:42;37.42;;;20.58;;
43184;SDS011;28803;52.308;19.096;2022-10-22T15:55:09;33.15;;;18.98;;
43184;SDS011;28803;52.308;19.096;2022-10-22T15:57:41;35.57;;;19.13;;
43184;SDS011;28803;52.308;19.096;2022-10-22T16:00:09;37.25;;;20.80;;
43184;SDS011;28803;52.308;19.096;2022-10-22T16:02:37;36.40;;;19.33;;
43184;SDS011;28803;52.308;19.096;2022-10-22T16:05:04;30.33;;;16.50;;
43184;SDS011;28803;52.308;19.096;2022-10-22T16:07:31;30.27;;;16.77;;
43184;SDS011;28803;52.308;19.096;2022-10-22T16:09:58;32.72;;;17.15;;
43184;SDS011;28803;52.308;19.096;2022-10-22T16:12:26;62.67;;;30.33;;
43184;SDS011;28803;52.308;19.096;2022-10-22T16:14:54;62.47;;;34.20;;
43184;SDS011;28803;52.308;19.096;2022-10-22T16:20:21;39.10;;;21.25;;
43184;SDS011;28803;52.308;19.096;2022-10-22T16:22:48;38.92;;;22.27;;
43184;SDS011;28803;52.308;19.096;2022-10-22T16:25:16;37.28;;;20.25;;
43184;SDS011;28803;52.308;19.096;2022-10-22T16:27:42;37.50;;;19.00;;